Harmon, Arkansas
Current Conditions -  °F | °C
As of 8:53 AM on Saturday 25 Oct 2014 (Local Time) from KFYV Reporting Station
Clear Clear  
Wind Chill: 65°   Ceiling: Unl
Heat Index: 65°   Visibility: 10mi
Dew Point: 60°   Wind: 7mph
Humidity: 84%   Direction: 200°SSW
Pressure: 30.12"   Gusts: NA
Location:  35.9902°N, 94.083°W
Report Text: KFYV 251353Z 20006KT 10SM CLR 18/16 A3012 RMK AO2 SLP195 T01830156
Loading
Personal Weather Stations






























Interactive Weather Map New forecast layout! Learn more

10-Day Weather Forecast

Advertisements
Track Severe Weather on mobile